sensor_id;sensor_type;location;lat;lon;timestamp;P1;durP1;ratioP1;P2;durP2;ratioP2
24743;SDS011;12844;52.110;5.548;2023-05-07T00:01:16;4.70;;;2.45;;
24743;SDS011;12844;52.110;5.548;2023-05-07T00:03:42;4.93;;;2.78;;
24743;SDS011;12844;52.110;5.548;2023-05-07T00:06:07;5.40;;;2.38;;
24743;SDS011;12844;52.110;5.548;2023-05-07T00:08:33;5.53;;;2.60;;
24743;SDS011;12844;52.110;5.548;2023-05-07T00:10:58;5.10;;;2.65;;
24743;SDS011;12844;52.110;5.548;2023-05-07T00:13:24;5.10;;;2.72;;
24743;SDS011;12844;52.110;5.548;2023-05-07T00:15:49;4.90;;;2.30;;
24743;SDS011;12844;52.110;5.548;2023-05-07T00:18:15;3.92;;;2.22;;
24743;SDS011;12844;52.110;5.548;2023-05-07T00:20:40;5.00;;;2.78;;
24743;SDS011;12844;52.110;5.548;2023-05-07T00:23:06;6.30;;;2.55;;
24743;SDS011;12844;52.110;5.548;2023-05-07T00:25:32;4.97;;;2.50;;
24743;SDS011;12844;52.110;5.548;2023-05-07T00:27:57;4.63;;;2.53;;
24743;SDS011;12844;52.110;5.548;2023-05-07T00:30:28;6.25;;;2.78;;
24743;SDS011;12844;52.110;5.548;2023-05-07T00:32:54;4.88;;;2.50;;
24743;SDS011;12844;52.110;5.548;2023-05-07T00:35:19;5.47;;;2.67;;
24743;SDS011;12844;52.110;5.548;2023-05-07T00:37:45;7.38;;;2.75;;
24743;SDS011;12844;52.110;5.548;2023-05-07T00:40:10;5.15;;;2.60;;
24743;SDS011;12844;52.110;5.548;2023-05-07T00:42:36;5.57;;;2.30;;
24743;SDS011;12844;52.110;5.548;2023-05-07T00:45:02;5.32;;;3.05;;
24743;SDS011;12844;52.110;5.548;2023-05-07T00:47:28;6.18;;;2.80;;
24743;SDS011;12844;52.110;5.548;2023-05-07T00:49:53;7.35;;;2.50;;
24743;SDS011;12844;52.110;5.548;2023-05-07T00:52:19;4.55;;;2.70;;
24743;SDS011;12844;52.110;5.548;2023-05-07T00:54:48;5.13;;;2.53;;
24743;SDS011;12844;52.110;5.548;2023-05-07T00:57:14;4.65;;;2.55;;
24743;SDS011;12844;52.110;5.548;2023-05-07T00:59:40;5.78;;;2.65;;
24743;SDS011;12844;52.110;5.548;2023-05-07T01:02:06;4.35;;;2.22;;
24743;SDS011;12844;52.110;5.548;2023-05-07T01:04:32;3.95;;;2.40;;
24743;SDS011;12844;52.110;5.548;2023-05-07T01:06:58;4.28;;;2.85;;
24743;SDS011;12844;52.110;5.548;2023-05-07T01:09:25;5.85;;;2.65;;
24743;SDS011;12844;52.110;5.548;2023-05-07T01:11:52;4.38;;;2.25;;
24743;SDS011;12844;52.110;5.548;2023-05-07T01:14:19;5.65;;;2.67;;
24743;SDS011;12844;52.110;5.548;2023-05-07T01:16:45;4.95;;;2.55;;
24743;SDS011;12844;52.110;5.548;2023-05-07T01:19:12;4.85;;;2.75;;
24743;SDS011;12844;52.110;5.548;2023-05-07T01:21:39;8.05;;;2.33;;
24743;SDS011;12844;52.110;5.548;2023-05-07T01:24:11;5.15;;;2.78;;
24743;SDS011;12844;52.110;5.548;2023-05-07T01:26:37;6.43;;;2.75;;
24743;SDS011;12844;52.110;5.548;2023-05-07T01:29:05;5.43;;;2.80;;
24743;SDS011;12844;52.110;5.548;2023-05-07T01:31:30;5.38;;;2.53;;
24743;SDS011;12844;52.110;5.548;2023-05-07T01:33:58;4.53;;;2.40;;
24743;SDS011;12844;52.110;5.548;2023-05-07T01:36:25;6.47;;;2.60;;
24743;SDS011;12844;52.110;5.548;2023-05-07T01:38:52;5.75;;;2.60;;
24743;SDS011;12844;52.110;5.548;2023-05-07T01:41:19;5.57;;;2.60;;
24743;SDS011;12844;52.110;5.548;2023-05-07T01:43:44;5.25;;;3.05;;
24743;SDS011;12844;52.110;5.548;2023-05-07T01:46:12;4.85;;;2.60;;
24743;SDS011;12844;52.110;5.548;2023-05-07T01:48:39;5.15;;;3.00;;
24743;SDS011;12844;52.110;5.548;2023-05-07T01:51:05;4.68;;;2.72;;
24743;SDS011;12844;52.110;5.548;2023-05-07T01:53:39;6.70;;;2.42;;
24743;SDS011;12844;52.110;5.548;2023-05-07T01:56:05;4.22;;;2.28;;
24743;SDS011;12844;52.110;5.548;2023-05-07T01:58:31;4.60;;;2.72;;
24743;SDS011;12844;52.110;5.548;2023-05-07T02:00:57;5.07;;;2.75;;
24743;SDS011;12844;52.110;5.548;2023-05-07T02:03:22;3.47;;;2.47;;
24743;SDS011;12844;52.110;5.548;2023-05-07T02:05:48;4.45;;;2.42;;
24743;SDS011;12844;52.110;5.548;2023-05-07T02:08:13;3.88;;;2.45;;
24743;SDS011;12844;52.110;5.548;2023-05-07T02:10:39;4.72;;;2.50;;
24743;SDS011;12844;52.110;5.548;2023-05-07T02:13:04;4.50;;;2.67;;
24743;SDS011;12844;52.110;5.548;2023-05-07T02:15:30;4.13;;;2.40;;
24743;SDS011;12844;52.110;5.548;2023-05-07T02:17:59;4.50;;;2.72;;
24743;SDS011;12844;52.110;5.548;2023-05-07T02:20:29;4.70;;;2.55;;
24743;SDS011;12844;52.110;5.548;2023-05-07T02:22:55;4.82;;;2.55;;
24743;SDS011;12844;52.110;5.548;2023-05-07T02:25:21;3.67;;;2.35;;
24743;SDS011;12844;52.110;5.548;2023-05-07T02:27:46;4.65;;;2.70;;
24743;SDS011;12844;52.110;5.548;2023-05-07T02:30:13;4.07;;;2.55;;
24743;SDS011;12844;52.110;5.548;2023-05-07T02:32:39;3.92;;;2.53;;
24743;SDS011;12844;52.110;5.548;2023-05-07T02:35:05;4.07;;;2.30;;
24743;SDS011;12844;52.110;5.548;2023-05-07T02:37:30;4.40;;;2.60;;
24743;SDS011;12844;52.110;5.548;2023-05-07T02:39:56;4.70;;;2.58;;
24743;SDS011;12844;52.110;5.548;2023-05-07T02:42:21;4.05;;;2.83;;
24743;SDS011;12844;52.110;5.548;2023-05-07T02:44:47;4.20;;;2.38;;
24743;SDS011;12844;52.110;5.548;2023-05-07T02:47:13;4.25;;;2.30;;
24743;SDS011;12844;52.110;5.548;2023-05-07T02:49:40;4.15;;;2.58;;
24743;SDS011;12844;52.110;5.548;2023-05-07T02:52:05;3.63;;;2.35;;
24743;SDS011;12844;52.110;5.548;2023-05-07T02:54:32;4.50;;;2.53;;
24743;SDS011;12844;52.110;5.548;2023-05-07T02:56:57;3.90;;;2.42;;
24743;SDS011;12844;52.110;5.548;2023-05-07T02:59:23;3.97;;;2.15;;
24743;SDS011;12844;52.110;5.548;2023-05-07T03:01:49;3.95;;;2.38;;
24743;SDS011;12844;52.110;5.548;2023-05-07T03:04:14;4.00;;;2.40;;
24743;SDS011;12844;52.110;5.548;2023-05-07T03:06:40;4.65;;;2.60;;
24743;SDS011;12844;52.110;5.548;2023-05-07T03:09:06;3.97;;;2.50;;
24743;SDS011;12844;52.110;5.548;2023-05-07T03:11:31;3.60;;;2.28;;
24743;SDS011;12844;52.110;5.548;2023-05-07T03:13:57;4.18;;;2.50;;
24743;SDS011;12844;52.110;5.548;2023-05-07T03:16:23;3.92;;;2.25;;
24743;SDS011;12844;52.110;5.548;2023-05-07T03:18:48;3.33;;;2.15;;
24743;SDS011;12844;52.110;5.548;2023-05-07T03:21:14;3.75;;;2.35;;
24743;SDS011;12844;52.110;5.548;2023-05-07T03:23:39;4.55;;;2.58;;
24743;SDS011;12844;52.110;5.548;2023-05-07T03:26:05;4.95;;;2.60;;
24743;SDS011;12844;52.110;5.548;2023-05-07T03:28:30;3.45;;;2.47;;
24743;SDS011;12844;52.110;5.548;2023-05-07T03:30:56;3.88;;;2.40;;
24743;SDS011;12844;52.110;5.548;2023-05-07T03:33:21;4.07;;;2.60;;
24743;SDS011;12844;52.110;5.548;2023-05-07T03:35:47;3.45;;;2.40;;
24743;SDS011;12844;52.110;5.548;2023-05-07T03:38:12;3.13;;;2.28;;
24743;SDS011;12844;52.110;5.548;2023-05-07T03:40:38;5.10;;;2.70;;
24743;SDS011;12844;52.110;5.548;2023-05-07T03:43:04;4.00;;;2.15;;
24743;SDS011;12844;52.110;5.548;2023-05-07T03:45:30;3.35;;;2.17;;
24743;SDS011;12844;52.110;5.548;2023-05-07T03:47:55;4.85;;;2.33;;
24743;SDS011;12844;52.110;5.548;2023-05-07T03:50:21;4.10;;;2.50;;
24743;SDS011;12844;52.110;5.548;2023-05-07T03:52:46;4.47;;;2.40;;
24743;SDS011;12844;52.110;5.548;2023-05-07T03:55:12;4.07;;;2.63;;
24743;SDS011;12844;52.110;5.548;2023-05-07T03:57:37;3.53;;;2.03;;
24743;SDS011;12844;52.110;5.548;2023-05-07T04:00:03;3.25;;;2.13;;
24743;SDS011;12844;52.110;5.548;2023-05-07T04:02:30;3.75;;;2.58;;
24743;SDS011;12844;52.110;5.548;2023-05-07T04:04:55;4.03;;;2.65;;
24743;SDS011;12844;52.110;5.548;2023-05-07T04:07:21;3.67;;;2.40;;
24743;SDS011;12844;52.110;5.548;2023-05-07T04:09:46;4.10;;;2.65;;
24743;SDS011;12844;52.110;5.548;2023-05-07T04:12:12;4.93;;;2.53;;
24743;SDS011;12844;52.110;5.548;2023-05-07T04:14:37;4.28;;;2.50;;
24743;SDS011;12844;52.110;5.548;2023-05-07T04:17:03;3.30;;;2.10;;
24743;SDS011;12844;52.110;5.548;2023-05-07T04:19:28;2.70;;;2.28;;
24743;SDS011;12844;52.110;5.548;2023-05-07T04:21:54;3.25;;;2.17;;
24743;SDS011;12844;52.110;5.548;2023-05-07T04:24:19;3.35;;;2.15;;
24743;SDS011;12844;52.110;5.548;2023-05-07T04:26:45;3.00;;;2.30;;
24743;SDS011;12844;52.110;5.548;2023-05-07T04:29:10;3.03;;;2.30;;
24743;SDS011;12844;52.110;5.548;2023-05-07T04:31:36;3.58;;;2.22;;
24743;SDS011;12844;52.110;5.548;2023-05-07T04:34:02;3.50;;;2.40;;
24743;SDS011;12844;52.110;5.548;2023-05-07T04:36:27;4.10;;;2.33;;
24743;SDS011;12844;52.110;5.548;2023-05-07T04:38:54;4.03;;;2.40;;
24743;SDS011;12844;52.110;5.548;2023-05-07T04:41:19;3.35;;;2.30;;
24743;SDS011;12844;52.110;5.548;2023-05-07T04:43:45;4.30;;;2.60;;
24743;SDS011;12844;52.110;5.548;2023-05-07T04:46:11;3.30;;;2.40;;
24743;SDS011;12844;52.110;5.548;2023-05-07T04:48:36;3.28;;;2.30;;
24743;SDS011;12844;52.110;5.548;2023-05-07T04:51:02;4.43;;;2.30;;
24743;SDS011;12844;52.110;5.548;2023-05-07T04:53:28;2.90;;;2.33;;
24743;SDS011;12844;52.110;5.548;2023-05-07T04:55:56;3.53;;;2.10;;
24743;SDS011;12844;52.110;5.548;2023-05-07T04:58:22;3.28;;;2.47;;
24743;SDS011;12844;52.110;5.548;2023-05-07T05:00:48;4.07;;;2.55;;
24743;SDS011;12844;52.110;5.548;2023-05-07T05:03:14;3.70;;;2.50;;
24743;SDS011;12844;52.110;5.548;2023-05-07T05:05:40;3.55;;;2.22;;
24743;SDS011;12844;52.110;5.548;2023-05-07T05:08:05;3.55;;;2.58;;
24743;SDS011;12844;52.110;5.548;2023-05-07T05:10:31;3.33;;;2.25;;
24743;SDS011;12844;52.110;5.548;2023-05-07T05:12:56;3.15;;;2.50;;
24743;SDS011;12844;52.110;5.548;2023-05-07T05:15:22;3.13;;;2.60;;
24743;SDS011;12844;52.110;5.548;2023-05-07T05:17:48;3.17;;;2.15;;
24743;SDS011;12844;52.110;5.548;2023-05-07T05:20:13;2.88;;;2.15;;
24743;SDS011;12844;52.110;5.548;2023-05-07T05:22:39;3.13;;;2.55;;
24743;SDS011;12844;52.110;5.548;2023-05-07T05:25:06;3.75;;;2.50;;
24743;SDS011;12844;52.110;5.548;2023-05-07T05:27:31;3.97;;;2.60;;
24743;SDS011;12844;52.110;5.548;2023-05-07T05:29:57;3.72;;;2.60;;
24743;SDS011;12844;52.110;5.548;2023-05-07T05:32:22;3.15;;;2.45;;
24743;SDS011;12844;52.110;5.548;2023-05-07T05:34:48;3.33;;;2.50;;
24743;SDS011;12844;52.110;5.548;2023-05-07T05:37:13;3.20;;;2.70;;
24743;SDS011;12844;52.110;5.548;2023-05-07T05:39:39;3.60;;;2.60;;
24743;SDS011;12844;52.110;5.548;2023-05-07T05:42:05;3.25;;;2.47;;
24743;SDS011;12844;52.110;5.548;2023-05-07T05:44:30;4.88;;;2.70;;
24743;SDS011;12844;52.110;5.548;2023-05-07T05:46:56;3.63;;;2.47;;
24743;SDS011;12844;52.110;5.548;2023-05-07T05:49:24;3.35;;;2.40;;
24743;SDS011;12844;52.110;5.548;2023-05-07T05:51:49;4.05;;;2.40;;
24743;SDS011;12844;52.110;5.548;2023-05-07T05:54:15;3.58;;;2.70;;
24743;SDS011;12844;52.110;5.548;2023-05-07T05:56:41;3.65;;;2.72;;
24743;SDS011;12844;52.110;5.548;2023-05-07T05:59:07;2.90;;;2.40;;
24743;SDS011;12844;52.110;5.548;2023-05-07T06:01:32;3.53;;;2.33;;
24743;SDS011;12844;52.110;5.548;2023-05-07T06:03:58;3.42;;;2.60;;
24743;SDS011;12844;52.110;5.548;2023-05-07T06:06:23;2.80;;;2.40;;
24743;SDS011;12844;52.110;5.548;2023-05-07T06:08:49;3.47;;;2.28;;
24743;SDS011;12844;52.110;5.548;2023-05-07T06:11:15;4.95;;;2.80;;
24743;SDS011;12844;52.110;5.548;2023-05-07T06:13:40;3.63;;;2.72;;
24743;SDS011;12844;52.110;5.548;2023-05-07T06:16:06;3.13;;;2.20;;
24743;SDS011;12844;52.110;5.548;2023-05-07T06:18:32;4.05;;;2.60;;
24743;SDS011;12844;52.110;5.548;2023-05-07T06:20:57;2.88;;;2.58;;
24743;SDS011;12844;52.110;5.548;2023-05-07T06:23:23;3.70;;;2.20;;
24743;SDS011;12844;52.110;5.548;2023-05-07T06:25:48;3.50;;;2.80;;
24743;SDS011;12844;52.110;5.548;2023-05-07T06:28:17;3.40;;;2.40;;
24743;SDS011;12844;52.110;5.548;2023-05-07T06:30:43;3.05;;;2.40;;
24743;SDS011;12844;52.110;5.548;2023-05-07T06:33:08;3.22;;;2.40;;
24743;SDS011;12844;52.110;5.548;2023-05-07T06:35:34;3.20;;;2.67;;
24743;SDS011;12844;52.110;5.548;2023-05-07T06:38:00;3.90;;;2.60;;
24743;SDS011;12844;52.110;5.548;2023-05-07T06:40:25;3.20;;;2.30;;
24743;SDS011;12844;52.110;5.548;2023-05-07T06:42:51;3.85;;;2.45;;
24743;SDS011;12844;52.110;5.548;2023-05-07T06:45:16;2.97;;;2.40;;
24743;SDS011;12844;52.110;5.548;2023-05-07T06:47:42;3.50;;;2.50;;
24743;SDS011;12844;52.110;5.548;2023-05-07T06:50:08;2.92;;;2.30;;
24743;SDS011;12844;52.110;5.548;2023-05-07T06:52:34;3.90;;;2.63;;
24743;SDS011;12844;52.110;5.548;2023-05-07T06:55:00;2.85;;;2.47;;
24743;SDS011;12844;52.110;5.548;2023-05-07T06:57:26;3.83;;;2.65;;
24743;SDS011;12844;52.110;5.548;2023-05-07T06:59:51;3.47;;;2.83;;
24743;SDS011;12844;52.110;5.548;2023-05-07T07:02:17;3.13;;;2.38;;
24743;SDS011;12844;52.110;5.548;2023-05-07T07:04:43;2.83;;;2.45;;
24743;SDS011;12844;52.110;5.548;2023-05-07T07:07:09;3.42;;;2.63;;
24743;SDS011;12844;52.110;5.548;2023-05-07T07:09:35;3.35;;;2.63;;
24743;SDS011;12844;52.110;5.548;2023-05-07T07:12:00;3.40;;;2.55;;
24743;SDS011;12844;52.110;5.548;2023-05-07T07:14:26;4.50;;;2.50;;
24743;SDS011;12844;52.110;5.548;2023-05-07T07:16:51;3.15;;;2.53;;
24743;SDS011;12844;52.110;5.548;2023-05-07T07:19:17;5.82;;;2.80;;
24743;SDS011;12844;52.110;5.548;2023-05-07T07:21:43;3.70;;;2.70;;
24743;SDS011;12844;52.110;5.548;2023-05-07T07:24:09;4.32;;;2.58;;
24743;SDS011;12844;52.110;5.548;2023-05-07T07:26:35;4.32;;;2.85;;
24743;SDS011;12844;52.110;5.548;2023-05-07T07:29:00;3.20;;;2.90;;
24743;SDS011;12844;52.110;5.548;2023-05-07T07:31:26;3.38;;;2.58;;
24743;SDS011;12844;52.110;5.548;2023-05-07T07:33:52;3.10;;;2.40;;
24743;SDS011;12844;52.110;5.548;2023-05-07T07:36:17;3.83;;;2.60;;
24743;SDS011;12844;52.110;5.548;2023-05-07T07:38:43;3.13;;;2.45;;
24743;SDS011;12844;52.110;5.548;2023-05-07T07:41:08;3.03;;;2.53;;
24743;SDS011;12844;52.110;5.548;2023-05-07T07:43:34;3.67;;;2.55;;
24743;SDS011;12844;52.110;5.548;2023-05-07T07:46:00;3.25;;;2.72;;
24743;SDS011;12844;52.110;5.548;2023-05-07T07:48:26;3.15;;;2.40;;
24743;SDS011;12844;52.110;5.548;2023-05-07T07:50:51;3.53;;;2.38;;
24743;SDS011;12844;52.110;5.548;2023-05-07T07:53:17;3.58;;;2.50;;
24743;SDS011;12844;52.110;5.548;2023-05-07T07:55:43;3.05;;;2.30;;
24743;SDS011;12844;52.110;5.548;2023-05-07T07:58:09;3.20;;;2.63;;
24743;SDS011;12844;52.110;5.548;2023-05-07T08:00:34;3.20;;;2.33;;
24743;SDS011;12844;52.110;5.548;2023-05-07T08:03:00;3.05;;;2.47;;
24743;SDS011;12844;52.110;5.548;2023-05-07T08:05:28;3.92;;;2.83;;
24743;SDS011;12844;52.110;5.548;2023-05-07T08:07:53;3.33;;;2.50;;
24743;SDS011;12844;52.110;5.548;2023-05-07T08:10:19;3.15;;;2.50;;
24743;SDS011;12844;52.110;5.548;2023-05-07T08:12:48;3.38;;;2.45;;
24743;SDS011;12844;52.110;5.548;2023-05-07T08:15:14;2.80;;;2.60;;
24743;SDS011;12844;52.110;5.548;2023-05-07T08:17:40;2.97;;;2.25;;
24743;SDS011;12844;52.110;5.548;2023-05-07T08:20:05;2.83;;;2.47;;
24743;SDS011;12844;52.110;5.548;2023-05-07T08:22:33;3.00;;;2.65;;
24743;SDS011;12844;52.110;5.548;2023-05-07T08:25:02;4.10;;;3.00;;
24743;SDS011;12844;52.110;5.548;2023-05-07T08:27:28;3.00;;;2.60;;
24743;SDS011;12844;52.110;5.548;2023-05-07T08:29:53;3.20;;;2.63;;
24743;SDS011;12844;52.110;5.548;2023-05-07T08:32:19;2.90;;;2.60;;
24743;SDS011;12844;52.110;5.548;2023-05-07T08:34:45;4.85;;;2.35;;
24743;SDS011;12844;52.110;5.548;2023-05-07T08:37:11;4.32;;;2.70;;
24743;SDS011;12844;52.110;5.548;2023-05-07T08:39:37;3.53;;;2.55;;
24743;SDS011;12844;52.110;5.548;2023-05-07T08:42:02;6.97;;;2.58;;
24743;SDS011;12844;52.110;5.548;2023-05-07T08:44:30;4.85;;;2.53;;
24743;SDS011;12844;52.110;5.548;2023-05-07T08:46:58;4.32;;;2.95;;
24743;SDS011;12844;52.110;5.548;2023-05-07T08:49:27;6.28;;;3.10;;
24743;SDS011;12844;52.110;5.548;2023-05-07T08:51:53;5.07;;;2.75;;
24743;SDS011;12844;52.110;5.548;2023-05-07T08:54:20;4.50;;;2.60;;
24743;SDS011;12844;52.110;5.548;2023-05-07T08:56:46;3.38;;;2.15;;
24743;SDS011;12844;52.110;5.548;2023-05-07T08:59:13;3.97;;;2.50;;
24743;SDS011;12844;52.110;5.548;2023-05-07T09:01:38;5.50;;;2.88;;
24743;SDS011;12844;52.110;5.548;2023-05-07T09:04:04;3.83;;;3.00;;
24743;SDS011;12844;52.110;5.548;2023-05-07T09:06:31;5.32;;;3.30;;
24743;SDS011;12844;52.110;5.548;2023-05-07T09:08:57;6.30;;;2.90;;
24743;SDS011;12844;52.110;5.548;2023-05-07T09:11:26;5.85;;;3.00;;
24743;SDS011;12844;52.110;5.548;2023-05-07T09:13:54;9.32;;;3.47;;
24743;SDS011;12844;52.110;5.548;2023-05-07T09:16:21;7.63;;;3.63;;
24743;SDS011;12844;52.110;5.548;2023-05-07T11:28:15;6.00;;;2.88;;
24743;SDS011;12844;52.110;5.548;2023-05-07T11:30:42;3.70;;;2.60;;
24743;SDS011;12844;52.110;5.548;2023-05-07T11:33:07;3.65;;;2.90;;
24743;SDS011;12844;52.110;5.548;2023-05-07T11:35:33;5.20;;;2.95;;
24743;SDS011;12844;52.110;5.548;2023-05-07T11:37:59;5.25;;;2.63;;
24743;SDS011;12844;52.110;5.548;2023-05-07T11:40:25;4.20;;;2.80;;
24743;SDS011;12844;52.110;5.548;2023-05-07T11:42:51;6.88;;;2.88;;
24743;SDS011;12844;52.110;5.548;2023-05-07T11:45:22;5.28;;;2.50;;
24743;SDS011;12844;52.110;5.548;2023-05-07T11:47:51;4.05;;;2.70;;
24743;SDS011;12844;52.110;5.548;2023-05-07T11:50:17;5.10;;;2.83;;
24743;SDS011;12844;52.110;5.548;2023-05-07T11:52:49;4.28;;;2.70;;
24743;SDS011;12844;52.110;5.548;2023-05-07T11:55:17;4.03;;;2.88;;
24743;SDS011;12844;52.110;5.548;2023-05-07T11:57:43;5.53;;;3.17;;
24743;SDS011;12844;52.110;5.548;2023-05-07T12:00:10;6.40;;;2.65;;
24743;SDS011;12844;52.110;5.548;2023-05-07T12:02:36;4.18;;;2.60;;
24743;SDS011;12844;52.110;5.548;2023-05-07T12:05:01;3.75;;;2.85;;
24743;SDS011;12844;52.110;5.548;2023-05-07T12:07:27;3.58;;;2.92;;
24743;SDS011;12844;52.110;5.548;2023-05-07T12:09:53;4.93;;;3.05;;
24743;SDS011;12844;52.110;5.548;2023-05-07T12:12:18;4.50;;;2.70;;
24743;SDS011;12844;52.110;5.548;2023-05-07T12:14:44;3.85;;;2.88;;
24743;SDS011;12844;52.110;5.548;2023-05-07T12:17:11;4.47;;;2.83;;
24743;SDS011;12844;52.110;5.548;2023-05-07T12:19:38;3.65;;;2.80;;
24743;SDS011;12844;52.110;5.548;2023-05-07T12:22:05;3.72;;;2.97;;
24743;SDS011;12844;52.110;5.548;2023-05-07T12:24:42;4.93;;;2.78;;
24743;SDS011;12844;52.110;5.548;2023-05-07T12:27:13;3.33;;;2.72;;
24743;SDS011;12844;52.110;5.548;2023-05-07T12:29:39;4.68;;;3.00;;
24743;SDS011;12844;52.110;5.548;2023-05-07T12:32:06;5.15;;;3.08;;
24743;SDS011;12844;52.110;5.548;2023-05-07T12:34:31;5.30;;;2.70;;
24743;SDS011;12844;52.110;5.548;2023-05-07T12:36:57;3.45;;;2.78;;
24743;SDS011;12844;52.110;5.548;2023-05-07T12:39:28;4.45;;;2.83;;
24743;SDS011;12844;52.110;5.548;2023-05-07T12:41:54;5.07;;;3.08;;
24743;SDS011;12844;52.110;5.548;2023-05-07T12:44:24;7.15;;;3.20;;
24743;SDS011;12844;52.110;5.548;2023-05-07T12:46:50;5.15;;;3.00;;
24743;SDS011;12844;52.110;5.548;2023-05-07T12:49:16;5.18;;;3.03;;
24743;SDS011;12844;52.110;5.548;2023-05-07T12:51:46;6.70;;;2.90;;
24743;SDS011;12844;52.110;5.548;2023-05-07T12:54:13;9.20;;;3.25;;
24743;SDS011;12844;52.110;5.548;2023-05-07T12:56:39;5.22;;;3.30;;
24743;SDS011;12844;52.110;5.548;2023-05-07T12:59:05;5.57;;;3.35;;
24743;SDS011;12844;52.110;5.548;2023-05-07T13:01:31;6.70;;;3.45;;
24743;SDS011;12844;52.110;5.548;2023-05-07T13:04:05;4.15;;;2.97;;
24743;SDS011;12844;52.110;5.548;2023-05-07T13:06:30;6.05;;;3.17;;
24743;SDS011;12844;52.110;5.548;2023-05-07T13:08:56;6.45;;;3.13;;
24743;SDS011;12844;52.110;5.548;2023-05-07T13:11:22;6.80;;;2.92;;
24743;SDS011;12844;52.110;5.548;2023-05-07T13:13:47;6.03;;;3.40;;
24743;SDS011;12844;52.110;5.548;2023-05-07T13:16:13;5.22;;;2.78;;
24743;SDS011;12844;52.110;5.548;2023-05-07T13:18:39;5.47;;;2.83;;
24743;SDS011;12844;52.110;5.548;2023-05-07T13:21:05;3.85;;;3.00;;
24743;SDS011;12844;52.110;5.548;2023-05-07T13:23:31;4.97;;;3.08;;
24743;SDS011;12844;52.110;5.548;2023-05-07T13:25:56;6.00;;;3.70;;
24743;SDS011;12844;52.110;5.548;2023-05-07T13:28:25;3.90;;;2.83;;
24743;SDS011;12844;52.110;5.548;2023-05-07T13:30:51;5.20;;;3.50;;
24743;SDS011;12844;52.110;5.548;2023-05-07T13:33:17;5.28;;;3.08;;
24743;SDS011;12844;52.110;5.548;2023-05-07T13:35:43;4.40;;;2.70;;
24743;SDS011;12844;52.110;5.548;2023-05-07T13:38:09;4.22;;;3.33;;
24743;SDS011;12844;52.110;5.548;2023-05-07T13:40:35;5.72;;;3.22;;
24743;SDS011;12844;52.110;5.548;2023-05-07T13:43:00;3.97;;;3.45;;
24743;SDS011;12844;52.110;5.548;2023-05-07T13:45:27;5.57;;;3.30;;
24743;SDS011;12844;52.110;5.548;2023-05-07T13:47:54;5.90;;;2.97;;
24743;SDS011;12844;52.110;5.548;2023-05-07T13:50:20;3.63;;;2.90;;
24743;SDS011;12844;52.110;5.548;2023-05-07T13:52:46;4.65;;;3.00;;
24743;SDS011;12844;52.110;5.548;2023-05-07T13:55:16;5.35;;;3.03;;
24743;SDS011;12844;52.110;5.548;2023-05-07T13:57:42;3.67;;;3.00;;
24743;SDS011;12844;52.110;5.548;2023-05-07T14:00:08;3.30;;;2.80;;
24743;SDS011;12844;52.110;5.548;2023-05-07T14:02:34;4.43;;;3.10;;
24743;SDS011;12844;52.110;5.548;2023-05-07T14:05:00;4.30;;;3.00;;
24743;SDS011;12844;52.110;5.548;2023-05-07T14:07:25;5.47;;;3.40;;
24743;SDS011;12844;52.110;5.548;2023-05-07T14:09:51;6.55;;;3.78;;
24743;SDS011;12844;52.110;5.548;2023-05-07T14:12:16;4.07;;;3.15;;
24743;SDS011;12844;52.110;5.548;2023-05-07T14:14:42;4.05;;;3.20;;
24743;SDS011;12844;52.110;5.548;2023-05-07T14:17:07;4.57;;;3.00;;
24743;SDS011;12844;52.110;5.548;2023-05-07T14:19:33;3.42;;;3.05;;
24743;SDS011;12844;52.110;5.548;2023-05-07T14:21:59;4.15;;;2.90;;
24743;SDS011;12844;52.110;5.548;2023-05-07T14:24:24;6.38;;;3.20;;
24743;SDS011;12844;52.110;5.548;2023-05-07T14:26:50;4.38;;;3.25;;
24743;SDS011;12844;52.110;5.548;2023-05-07T14:29:15;5.47;;;3.13;;
24743;SDS011;12844;52.110;5.548;2023-05-07T14:31:43;3.97;;;2.97;;
24743;SDS011;12844;52.110;5.548;2023-05-07T14:34:09;4.05;;;3.00;;
24743;SDS011;12844;52.110;5.548;2023-05-07T14:36:35;4.32;;;3.50;;
24743;SDS011;12844;52.110;5.548;2023-05-07T14:39:00;3.50;;;2.90;;
24743;SDS011;12844;52.110;5.548;2023-05-07T14:41:26;4.13;;;3.00;;
24743;SDS011;12844;52.110;5.548;2023-05-07T14:43:51;3.58;;;3.13;;
24743;SDS011;12844;52.110;5.548;2023-05-07T14:46:17;4.30;;;3.17;;
24743;SDS011;12844;52.110;5.548;2023-05-07T14:48:46;6.65;;;3.38;;
24743;SDS011;12844;52.110;5.548;2023-05-07T14:51:12;3.88;;;3.05;;
24743;SDS011;12844;52.110;5.548;2023-05-07T14:53:38;4.30;;;3.08;;
24743;SDS011;12844;52.110;5.548;2023-05-07T14:56:05;4.03;;;2.92;;
24743;SDS011;12844;52.110;5.548;2023-05-07T14:58:30;4.38;;;3.17;;
24743;SDS011;12844;52.110;5.548;2023-05-07T15:00:56;5.63;;;3.38;;
24743;SDS011;12844;52.110;5.548;2023-05-07T15:03:22;4.50;;;3.50;;
24743;SDS011;12844;52.110;5.548;2023-05-07T15:05:48;3.83;;;3.38;;
24743;SDS011;12844;52.110;5.548;2023-05-07T15:08:15;4.05;;;3.35;;
24743;SDS011;12844;52.110;5.548;2023-05-07T15:10:41;4.60;;;3.45;;
24743;SDS011;12844;52.110;5.548;2023-05-07T15:13:07;4.10;;;3.35;;
24743;SDS011;12844;52.110;5.548;2023-05-07T15:15:33;4.45;;;3.38;;
24743;SDS011;12844;52.110;5.548;2023-05-07T15:17:59;4.03;;;3.28;;
24743;SDS011;12844;52.110;5.548;2023-05-07T15:20:25;6.15;;;3.55;;
24743;SDS011;12844;52.110;5.548;2023-05-07T15:22:51;3.67;;;3.38;;
24743;SDS011;12844;52.110;5.548;2023-05-07T15:25:17;4.22;;;3.53;;
24743;SDS011;12844;52.110;5.548;2023-05-07T15:27:42;4.07;;;3.35;;
24743;SDS011;12844;52.110;5.548;2023-05-07T15:30:08;5.00;;;3.15;;
24743;SDS011;12844;52.110;5.548;2023-05-07T15:32:36;4.53;;;3.85;;
24743;SDS011;12844;52.110;5.548;2023-05-07T15:35:02;3.85;;;3.45;;
24743;SDS011;12844;52.110;5.548;2023-05-07T15:37:30;4.20;;;3.25;;
24743;SDS011;12844;52.110;5.548;2023-05-07T15:39:56;4.88;;;3.70;;
24743;SDS011;12844;52.110;5.548;2023-05-07T15:42:21;3.65;;;3.30;;
24743;SDS011;12844;52.110;5.548;2023-05-07T15:44:47;5.22;;;4.00;;
24743;SDS011;12844;52.110;5.548;2023-05-07T15:47:13;3.97;;;3.58;;
24743;SDS011;12844;52.110;5.548;2023-05-07T15:49:40;4.38;;;3.30;;
24743;SDS011;12844;52.110;5.548;2023-05-07T15:52:06;3.95;;;3.28;;
24743;SDS011;12844;52.110;5.548;2023-05-07T15:54:31;4.88;;;3.25;;
24743;SDS011;12844;52.110;5.548;2023-05-07T15:56:57;4.75;;;3.22;;
24743;SDS011;12844;52.110;5.548;2023-05-07T15:59:22;4.00;;;3.60;;
24743;SDS011;12844;52.110;5.548;2023-05-07T16:01:48;3.80;;;3.28;;
24743;SDS011;12844;52.110;5.548;2023-05-07T16:04:13;4.45;;;3.80;;
24743;SDS011;12844;52.110;5.548;2023-05-07T16:06:39;3.97;;;3.58;;
24743;SDS011;12844;52.110;5.548;2023-05-07T16:09:05;4.65;;;3.88;;
24743;SDS011;12844;52.110;5.548;2023-05-07T16:11:30;4.13;;;3.72;;
24743;SDS011;12844;52.110;5.548;2023-05-07T16:13:57;4.15;;;3.65;;
24743;SDS011;12844;52.110;5.548;2023-05-07T16:16:25;4.20;;;3.47;;
24743;SDS011;12844;52.110;5.548;2023-05-07T16:18:53;4.35;;;3.47;;
24743;SDS011;12844;52.110;5.548;2023-05-07T16:21:20;4.70;;;3.80;;
24743;SDS011;12844;52.110;5.548;2023-05-07T16:23:46;4.90;;;3.83;;
24743;SDS011;12844;52.110;5.548;2023-05-07T16:26:12;3.97;;;3.55;;
24743;SDS011;12844;52.110;5.548;2023-05-07T16:28:38;4.00;;;3.60;;
24743;SDS011;12844;52.110;5.548;2023-05-07T16:31:06;4.00;;;3.50;;
24743;SDS011;12844;52.110;5.548;2023-05-07T16:33:32;3.53;;;3.22;;
24743;SDS011;12844;52.110;5.548;2023-05-07T16:35:58;4.03;;;3.28;;
24743;SDS011;12844;52.110;5.548;2023-05-07T16:38:23;4.07;;;3.38;;
24743;SDS011;12844;52.110;5.548;2023-05-07T16:40:50;3.45;;;3.15;;
24743;SDS011;12844;52.110;5.548;2023-05-07T16:43:16;3.95;;;3.40;;
24743;SDS011;12844;52.110;5.548;2023-05-07T16:45:42;3.67;;;3.38;;
24743;SDS011;12844;52.110;5.548;2023-05-07T16:48:08;3.50;;;3.15;;
24743;SDS011;12844;52.110;5.548;2023-05-07T16:50:33;3.35;;;3.05;;